Data for 05/07/2014

Time Sea-Level Adjusted Pressure Absolute Pressure Temperature Relative Humidity Dew Point   
(mb) (inHg) (mb) (inHg) (C) (F) (%) (C) (F)
00:05 1014 29.94 843 24.89 0.7 33.2 90 -0.8 30.6
00:10 1014 29.94 843 24.89 0.5 32.9 91 -0.8 30.6
00:15 1014 29.94 843 24.89 0.3 32.6 92 -0.9 30.4
00:20 1014 29.94 843 24.89 0.2 32.4 92 -0.9 30.4
00:25 1014 29.94 843 24.89 0.2 32.4 91 -1 30.1
00:30 1014 29.94 843 24.89 0.3 32.5 90 -1.1 30
00:35 1014 29.94 843 24.89 0.3 32.6 89 -1.3 29.6
00:40 1014 29.94 843 24.89 0.4 32.7 88 -1.4 29.5
00:45 1014 29.94 843 24.89 0.4 32.7 87 -1.5 29.4
00:50 1014 29.94 843 24.89 0.4 32.8 87 -1.5 29.3
00:55 1014 29.94 843 24.89 0.4 32.7 87 -1.6 29.2
01:00 1014 29.94 843 24.89 0.3 32.6 87 -1.6 29.2
01:05 1014 29.94 843 24.89 0.3 32.5 89 -1.4 29.5
01:10 1014 29.94 843 24.89 0.2 32.4 88 -1.5 29.3
01:15 1014 29.94 843 24.89 0.2 32.4 88 -1.6 29.2
01:20 1014 29.94 843 24.89 0.2 32.4 87 -1.8 28.8
01:25 1013 29.91 843 24.89 0.1 32.2 87 -1.8 28.8
01:30 1013 29.91 843 24.89 0 32 88 -1.8 28.7
01:35 1013 29.91 843 24.89 -0.1 31.9 88 -1.8 28.8
01:40 1013 29.91 843 24.89 -0.2 31.7 89 -1.8 28.8
01:45 1013 29.91 843 24.89 -0.2 31.7 89 -1.7 28.9
01:50 1013 29.91 843 24.89 -0.2 31.7 88 -1.9 28.6
01:55 1013 29.91 843 24.89 -0.1 31.7 88 -1.9 28.6
02:00 1013 29.91 843 24.89 -0.2 31.7 88 -1.9 28.5
02:05 1014 29.94 843 24.89 -0.2 31.7 88 -2 28.4
02:10 1014 29.94 843 24.89 -0.2 31.7 87 -2.1 28.3
02:15 1014 29.94 843 24.89 -0.2 31.7 87 -2 28.3
02:20 1014 29.94 843 24.89 -0.2 31.6 88 -2 28.4
02:25 1014 29.94 843 24.89 -0.3 31.5 88 -2 28.3
02:30 1014 29.94 843 24.89 -0.3 31.4 88 -2.1 28.2
02:35 1014 29.94 843 24.89 -0.4 31.3 88 -2.1 28.3
02:40 1014 29.94 843 24.89 -0.4 31.4 88 -2.1 28.3
02:45 1014 29.94 843 24.89 -0.3 31.4 88 -2.1 28.2
02:50 1014 29.94 843 24.89 -0.3 31.4 89 -2 28.5
02:55 1014 29.94 843 24.89 -0.3 31.4 88 -2.1 28.3
03:00 1014 29.94 843 24.89 -0.3 31.5 89 -1.9 28.6
03:05 1014 29.94 843 24.89 -0.3 31.5 91 -1.6 29.1
03:10 1014 29.94 843 24.89 -0.3 31.5 90 -1.8 28.8
03:15 1014 29.94 843 24.89 -0.3 31.5 89 -1.9 28.5
03:20 1014 29.94 843 24.89 -0.3 31.5 88 -2.1 28.3
03:25 1014 29.94 843 24.89 -0.3 31.5 88 -2 28.4
03:30 1014 29.94 843 24.89 -0.3 31.5 88 -2.1 28.2
03:35 1014 29.94 843 24.89 -0.3 31.5 89 -2 28.5
03:40 1014 29.94 843 24.89 -0.3 31.5 89 -1.9 28.6
03:45 1014 29.94 843 24.89 -0.3 31.5 89 -1.9 28.6
03:50 1014 29.94 843 24.89 -0.3 31.5 91 -1.5 29.3
03:55 1014 29.94 843 24.89 -0.3 31.5 91 -1.6 29.1
04:00 1014 29.94 843 24.89 -0.2 31.6 90 -1.7 29
04:05 1014 29.94 843 24.89 -0.3 31.4 88 -2.1 28.2
04:10 1014 29.94 843 24.89 -0.3 31.4 89 -2 28.5
04:15 1014 29.94 843 24.89 -0.3 31.4 89 -1.9 28.7
04:20 1014 29.94 843 24.89 -0.4 31.3 90 -1.8 28.8
04:25 1014 29.94 843 24.89 -0.4 31.3 91 -1.7 28.9
04:30 1014 29.94 843 24.89 -0.4 31.3 92 -1.6 29.2
04:35 1014 29.94 843 24.89 -0.4 31.2 91 -1.7 29
04:40 1014 29.94 843 24.89 -0.5 31.1 89 -2.1 28.2
04:45 1014 29.94 843 24.89 -0.5 31.1 90 -1.9 28.6
04:50 1014 29.94 843 24.89 -0.5 31.1 90 -1.9 28.6
04:55 1014 29.94 843 24.89 -0.6 30.9 90 -2 28.4
05:00 1014 29.94 843 24.89 -0.6 30.9 91 -1.9 28.6
05:05 1014 29.94 843 24.89 -0.7 30.8 90 -2.1 28.2
05:10 1014 29.94 843 24.89 -0.7 30.8 90 -2.2 28.1
05:15 1014 29.94 843 24.89 -0.7 30.7 89 -2.4 27.7
05:20 1014 29.94 843 24.89 -0.8 30.5 90 -2.3 27.8
05:25 1014 29.94 843 24.89 -0.9 30.4 90 -2.3 27.8
05:30 1014 29.94 843 24.89 -1 30.3 90 -2.3 27.8
05:35 1014 29.94 843 24.89 -1 30.2 90 -2.4 27.7
05:40 1014 29.94 843 24.89 -0.9 30.3 89 -2.5 27.5
05:45 1014 29.94 843 24.89 -0.8 30.5 88 -2.6 27.3
05:50 1014 29.94 843 24.89 -0.7 30.7 87 -2.7 27.2
05:55 1014 29.94 843 24.89 -0.7 30.7 85 -2.9 26.7
06:00 1014 29.94 843 24.89 -0.6 30.9 85 -2.9 26.8
06:05 1014 29.94 843 24.89 -0.6 31 83 -3 26.5
06:10 1014 29.94 843 24.89 -0.4 31.2 82 -3.1 26.4
06:15 1014 29.94 843 24.89 -0.3 31.5 81 -3.2 26.3
06:20 1014 29.94 843 24.89 -0.2 31.6 78 -3.5 25.7
06:25 1014 29.94 843 24.89 -0.2 31.7 79 -3.3 26.1
06:30 1014 29.94 843 24.89 -0.2 31.7 79 -3.3 26
06:35 1014 29.94 843 24.89 -0.1 31.8 78 -3.5 25.6
06:40 1014 29.94 843 24.89 -0.1 31.8 78 -3.5 25.7
06:45 1014 29.94 843 24.89 0 32 77 -3.6 25.5
06:50 1014 29.94 843 24.89 0.1 32.2 75 -3.9 25
06:55 1014 29.94 843 24.89 0.1 32.2 75 -3.7 25.3
07:00 1014 29.94 843 24.89 -0.1 31.9 78 -3.5 25.8
07:05 1014 29.94 843 24.89 -0.3 31.4 79 -3.5 25.8
07:10 1014 29.94 843 24.89 -0.3 31.4 78 -3.7 25.4
07:15 1014 29.94 843 24.89 -0.3 31.5 80 -3.4 25.9
07:20 1014 29.94 843 24.89 -0.3 31.5 78 -3.6 25.5
07:25 1014 29.94 843 24.89 -0.3 31.5 78 -3.7 25.4
07:30 1014 29.94 843 24.89 -0.2 31.6 78 -3.6 25.4
07:35 1014 29.94 843 24.89 -0.2 31.7 78 -3.6 25.5
07:40 1014 29.94 843 24.89 -0.2 31.6 78 -3.6 25.6
07:45 1014 29.94 843 24.89 -0.1 31.9 78 -3.5 25.6
07:50 1014 29.94 843 24.89 -0 32 78 -3.5 25.7
07:55 1014 29.94 843 24.89 0.1 32.1 73 -4.3 24.3
08:00 1014 29.94 843 24.89 0.3 32.5 76 -3.4 25.8
08:05 1014 29.94 843 24.89 0.4 32.8 71 -4.2 24.5
08:10 1014 29.94 843 24.89 0.4 32.8 75 -3.6 25.6
08:15 1014 29.94 843 24.89 0.3 32.6 78 -3.1 26.4
08:20 1014 29.94 843 24.89 0.2 32.4 78 -3.2 26.3
08:25 1014 29.94 843 24.89 0.5 32.8 75 -3.4 25.9
08:30 1014 29.94 843 24.89 0.4 32.8 75 -3.6 25.6
08:35 1014 29.94 843 24.89 0.2 32.4 79 -2.9 26.7
08:40 1014 29.94 843 24.89 0.4 32.7 77 -3.2 26.2
08:45 1014 29.94 843 24.89 0.3 32.6 75 -3.6 25.6
08:50 1014 29.94 843 24.89 0.4 32.8 77 -3.2 26.3
08:55 1014 29.94 843 24.89 0.6 33.1 74 -3.4 25.8
09:00 1014 29.94 843 24.89 0.5 33 74 -3.5 25.7
09:05 1014 29.94 843 24.89 0.4 32.7 76 -3.4 25.8
09:10 1014 29.94 843 24.89 0.5 33 76 -3.1 26.4
09:15 1014 29.94 843 24.89 0.5 33 75 -3.4 25.9
09:20 1014 29.94 843 24.89 0.4 32.8 76 -3.3 26
09:25 1014 29.94 843 24.89 0.4 32.7 77 -3.2 26.3
09:30 1014 29.94 843 24.89 0.6 33.1 75 -3.3 26.1
09:35 1014 29.94 843 24.89 0.7 33.2 74 -3.5 25.7
09:40 1014 29.94 844 24.92 0.8 33.4 73 -3.6 25.5
09:45 1014 29.94 844 24.92 1 33.8 70 -4 24.9
09:50 1014 29.94 844 24.92 1.1 33.9 68 -4.2 24.5
09:55 1014 29.94 844 24.92 0.9 33.6 71 -3.8 25.2
10:00 1014 29.94 844 24.92 0.9 33.6 71 -3.8 25.2
10:05 1014 29.94 844 24.92 0.8 33.5 70 -4.1 24.6
10:10 1014 29.94 844 24.92 1.2 34.2 67 -4.2 24.4
10:15 1014 29.94 844 24.92 1.4 34.6 68 -3.9 24.9
10:20 1014 29.94 844 24.92 1.4 34.5 68 -3.8 25.1
10:25 1014 29.94 844 24.92 1.7 35.1 63 -4.6 23.8
10:30 1015 29.97 844 24.92 2 35.6 64 -4.2 24.4
10:35 1014 29.94 844 24.92 1.9 35.4 63 -4.4 24.2
10:40 1014 29.94 844 24.92 1.9 35.4 63 -4.4 24.1
10:45 1014 29.94 844 24.92 1.9 35.4 65 -4 24.8
10:50 1014 29.94 844 24.92 2 35.6 63 -4.4 24.2
10:55 1014 29.94 844 24.92 1.7 35.1 64 -4.4 24.2
11:00 1014 29.94 843 24.89 1.8 35.2 65 -4.1 24.7
11:05 1014 29.94 844 24.92 1.6 34.9 64 -4.4 24.1
11:10 1014 29.94 844 24.92 1.8 35.2 64 -4.3 24.3
11:15 1014 29.94 844 24.92 1.9 35.5 65 -3.9 25
11:20 1014 29.94 844 24.92 2.2 36 62 -4.3 24.3
11:25 1014 29.94 844 24.92 2.2 36 62 -4.3 24.2
11:30 1014 29.94 844 24.92 1.9 35.5 61 -4.7 23.5
11:35 1014 29.94 844 24.92 2.5 36.5 62 -4 24.8
11:40 1014 29.94 844 24.92 2.4 36.4 63 -3.9 24.9
11:45 1014 29.94 843 24.89 2.4 36.4 63 -4 24.9
11:50 1014 29.94 843 24.89 2.3 36.1 64 -3.9 25
11:55 1014 29.94 844 24.92 2.3 36.1 62 -4.2 24.4
12:00 1014 29.94 844 24.92 2.2 35.9 63 -4.1 24.7
12:05 1014 29.94 844 24.92 2.3 36.2 63 -4 24.9
12:10 1014 29.94 844 24.92 2.6 36.7 61 -4.2 24.5
12:15 1014 29.94 843 24.89 2.4 36.3 63 -3.9 24.9
12:20 1014 29.94 843 24.89 2.4 36.4 63 -3.9 24.9
12:25 1014 29.94 843 24.89 2.6 36.6 63 -3.7 25.3
12:30 1014 29.94 843 24.89 2.4 36.3 64 -3.8 25.1
12:35 1014 29.94 843 24.89 2.2 36 67 -3.4 25.9
12:40 1014 29.94 843 24.89 2.3 36.2 63 -4 24.9
12:45 1014 29.94 843 24.89 2.5 36.4 63 -3.8 25.1
12:50 1014 29.94 843 24.89 2.5 36.5 63 -3.7 25.3
12:55 1014 29.94 843 24.89 2.6 36.6 62 -3.9 25
13:00 1014 29.94 843 24.89 2.6 36.6 64 -3.7 25.4
13:05 1014 29.94 843 24.89 3 37.4 62 -3.6 25.5
13:10 1014 29.94 843 24.89 2.8 37.1 60 -4.3 24.3
13:15 1014 29.94 843 24.89 2.9 37.3 61 -4 24.9
13:20 1014 29.94 843 24.89 2.8 37 61 -4.1 24.7
13:25 1014 29.94 843 24.89 3 37.4 59 -4.1 24.5
13:30 1014 29.94 843 24.89 3.2 37.8 57 -4.4 24
13:35 1014 29.94 843 24.89 3.4 38.2 59 -3.9 25
13:40 1014 29.94 843 24.89 3.8 38.8 57 -4.1 24.7
13:45 1014 29.94 843 24.89 3.6 38.5 57 -4.2 24.5
13:50 1014 29.94 843 24.89 3.4 38.1 57 -4.2 24.4
13:55 1014 29.94 843 24.89 3.2 37.8 61 -3.5 25.6
14:00 1014 29.94 843 24.89 3.4 38.2 60 -3.5 25.6
14:05 1014 29.94 843 24.89 2.9 37.3 60 -4 24.9
14:10 1014 29.94 843 24.89 3.2 37.7 60 -3.8 25.2
14:15 1014 29.94 843 24.89 3 37.4 60 -4.1 24.6
14:20 1014 29.94 843 24.89 3.2 37.8 62 -3.3 26
14:25 1014 29.94 843 24.89 3.6 38.5 61 -3.3 26.1
14:30 1014 29.94 843 24.89 3.7 38.6 58 -3.8 25.1
14:35 1014 29.94 843 24.89 3.5 38.2 58 -4.1 24.7
14:40 1014 29.94 843 24.89 3.8 38.8 58 -3.7 25.4
14:45 1014 29.94 843 24.89 3.9 39.1 57 -3.7 25.3
14:50 1014 29.94 843 24.89 3.7 38.7 57 -4.1 24.6
14:55 1014 29.94 843 24.89 3.5 38.2 60 -3.7 25.4
15:00 1014 29.94 843 24.89 3.6 38.4 58 -3.9 24.9
15:05 1014 29.94 843 24.89 3.3 37.9 60 -3.8 25.1
15:10 1014 29.94 843 24.89 2.9 37.1 60 -4.1 24.6
15:15 1014 29.94 843 24.89 2.8 37.1 60 -4.2 24.4
15:20 1014 29.94 843 24.89 2.9 37.3 61 -3.9 24.9
15:25 1014 29.94 843 24.89 3.2 37.8 58 -4.3 24.3
15:30 1014 29.94 843 24.89 3.3 37.9 59 -3.9 25
15:35 1014 29.94 843 24.89 3.5 38.3 60 -3.5 25.6
15:40 1014 29.94 843 24.89 3.5 38.3 60 -3.6 25.5
15:45 1014 29.94 843 24.89 3.4 38.1 60 -3.6 25.5
15:50 1014 29.94 843 24.89 3.2 37.8 61 -3.6 25.5
15:55 1014 29.94 843 24.89 3 37.3 61 -3.7 25.3
16:00 1014 29.94 843 24.89 3 37.4 61 -3.8 25.1
16:05 1014 29.94 843 24.89 3.1 37.6 61 -3.7 25.4
16:10 1014 29.94 843 24.89 3.3 37.9 60 -3.6 25.4
16:15 1014 29.94 843 24.89 4 39.2 56 -3.9 24.9
16:20 1014 29.94 843 24.89 3.9 39.1 57 -3.8 25.1
16:25 1014 29.94 843 24.89 3.9 39.1 57 -3.8 25.2
16:30 1014 29.94 843 24.89 3.5 38.4 62 -3.1 26.4
16:35 1014 29.94 843 24.89 3.2 37.8 60 -3.8 25.1
16:40 1014 29.94 843 24.89 3.2 37.7 60 -3.9 25
16:45 1014 29.94 843 24.89 3.3 38 60 -3.6 25.5
16:50 1014 29.94 843 24.89 3.4 38.1 60 -3.7 25.4
16:55 1014 29.94 844 24.92 3.4 38.1 60 -3.5 25.6
17:00 1014 29.94 844 24.92 3.6 38.4 59 -3.7 25.4
17:05 1014 29.94 844 24.92 3.6 38.5 58 -3.8 25.1
17:10 1014 29.94 844 24.92 3.4 38.2 61 -3.4 25.8
17:15 1014 29.94 843 24.89 3.1 37.5 61 -3.7 25.4
17:20 1014 29.94 844 24.92 3.2 37.7 60 -3.9 24.9
17:25 1014 29.94 844 24.92 3.2 37.8 60 -3.8 25.2
17:30 1014 29.94 844 24.92 3.2 37.7 60 -3.9 24.9
17:35 1014 29.94 844 24.92 3.2 37.7 59 -4 24.7
17:40 1014 29.94 844 24.92 3.3 38 60 -3.8 25.2
17:45 1014 29.94 844 24.92 3.2 37.8 60 -3.7 25.3
17:50 1014 29.94 844 24.92 3.4 38.1 61 -3.4 25.8
17:55 1014 29.94 844 24.92 3.4 38.1 60 -3.6 25.5
18:00 1015 29.97 844 24.92 3.3 37.9 59 -3.9 25
18:05 1015 29.97 844 24.92 3.2 37.7 61 -3.7 25.3
18:10 1015 29.97 844 24.92 3.1 37.5 62 -3.6 25.5
18:15 1015 29.97 844 24.92 3 37.3 60 -4 24.8
18:20 1015 29.97 844 24.92 3 37.5 61 -3.7 25.3
18:25 1015 29.97 844 24.92 3 37.4 62 -3.7 25.4
18:30 1015 29.97 844 24.92 2.9 37.2 63 -3.6 25.6
18:35 1015 29.97 844 24.92 2.9 37.2 61 -4 24.8
18:40 1015 29.97 844 24.92 2.7 36.8 61 -4.2 24.5
18:45 1015 29.97 844 24.92 2.5 36.6 61 -4.1 24.6
18:50 1015 29.97 844 24.92 2.5 36.5 63 -3.9 24.9
18:55 1015 29.97 844 24.92 2.3 36.2 64 -3.8 25.2
19:00 1015 29.97 844 24.92 2.2 35.9 65 -3.6 25.4
19:05 1015 29.97 844 24.92 2.1 35.8 66 -3.6 25.5
19:10 1015 29.97 844 24.92 2.1 35.7 65 -3.8 25.1
19:15 1015 29.97 844 24.92 2 35.6 66 -3.7 25.3
19:20 1015 29.97 844 24.92 1.9 35.4 67 -3.5 25.7
19:25 1015 29.97 844 24.92 1.8 35.2 68 -3.4 25.9
19:30 1015 29.97 844 24.92 1.7 35.1 69 -3.3 26
19:35 1015 29.97 844 24.92 1.7 35 70 -3.3 26.1
19:40 1015 29.97 844 24.92 1.6 34.9 69 -3.5 25.8
19:45 1015 29.97 844 24.92 1.6 34.8 69 -3.5 25.8
19:50 1015 29.97 844 24.92 1.5 34.7 69 -3.6 25.6
19:55 1015 29.97 844 24.92 1.5 34.6 70 -3.4 26
20:00 1015 29.97 844 24.92 1.4 34.5 71 -3.3 26.1
20:05 1015 29.97 844 24.92 1.3 34.3 72 -3.2 26.2
20:10 1015 29.97 844 24.92 1.2 34.2 72 -3.3 26
20:15 1015 29.97 844 24.92 1.2 34.1 72 -3.3 26.1
20:20 1015 29.97 844 24.92 1.1 33.9 72 -3.4 25.9
20:25 1015 29.97 844 24.92 1 33.9 73 -3.3 26.1
20:30 1015 29.97 844 24.92 0.9 33.7 73 -3.4 25.9
20:35 1015 29.97 844 24.92 1 33.7 72 -3.4 25.8
20:40 1015 29.97 844 24.92 0.9 33.7 73 -3.4 25.8
20:45 1015 29.97 844 24.92 0.9 33.6 74 -3.3 26.1
20:50 1015 29.97 844 24.92 0.8 33.4 75 -3.2 26.2
20:55 1015 29.97 844 24.92 0.7 33.3 75 -3.3 26.1
21:00 1015 29.97 844 24.92 0.7 33.3 74 -3.3 26
21:05 1015 29.97 844 24.92 0.7 33.3 74 -3.4 25.9
21:10 1015 29.97 844 24.92 0.7 33.3 74 -3.4 25.9
21:15 1015 29.97 844 24.92 0.7 33.2 75 -3.3 26.1
21:20 1015 29.97 844 24.92 0.7 33.2 73 -3.7 25.4
21:25 1015 29.97 844 24.92 0.7 33.3 73 -3.5 25.6
21:30 1015 29.97 844 24.92 0.7 33.2 74 -3.5 25.8
21:35 1015 29.97 844 24.92 0.7 33.2 74 -3.4 25.9
21:40 1015 29.97 844 24.92 0.6 33.1 75 -3.4 26
21:45 1015 29.97 844 24.92 0.5 33 74 -3.5 25.7
21:50 1015 29.97 844 24.92 0.5 32.8 75 -3.5 25.7
21:55 1015 29.97 844 24.92 0.4 32.7 75 -3.5 25.6
22:00 1015 29.97 844 24.92 0.4 32.7 75 -3.5 25.7
22:05 1015 29.97 844 24.92 0.4 32.7 74 -3.6 25.4
22:10 1015 29.97 844 24.92 0.4 32.7 74 -3.7 25.4
22:15 1015 29.97 844 24.92 0.3 32.6 74 -3.8 25.2
22:20 1015 29.97 844 24.92 0.3 32.6 74 -3.8 25.1
22:25 1015 29.97 844 24.92 0.2 32.4 74 -3.9 25
22:30 1015 29.97 844 24.92 0.2 32.4 74 -3.9 25.1
22:35 1015 29.97 844 24.92 0.2 32.3 74 -3.9 25
22:40 1015 29.97 844 24.92 0 32.1 76 -3.7 25.3
22:45 1015 29.97 844 24.92 -0.1 31.8 77 -3.7 25.3
22:50 1015 29.97 844 24.92 -0.1 31.8 77 -3.6 25.4
22:55 1015 29.97 844 24.92 -0.2 31.7 77 -3.7 25.4
23:00 1015 29.97 844 24.92 -0.2 31.7 77 -3.7 25.4
23:05 1015 29.97 844 24.92 -0.2 31.6 78 -3.7 25.4
23:10 1015 29.97 844 24.92 -0.3 31.5 77 -3.7 25.3
23:15 1015 29.97 844 24.92 -0.3 31.4 77 -3.8 25.1
23:20 1015 29.97 844 24.92 -0.3 31.4 76 -4 24.8
23:25 1015 29.97 844 24.92 -0.4 31.3 77 -4 24.8
23:30 1015 29.97 844 24.92 -0.5 31.2 77 -4.1 24.7
23:35 1015 29.97 844 24.92 -0.4 31.2 76 -4.1 24.6
23:40 1015 29.97 844 24.92 -0.5 31.1 77 -4.1 24.6
23:45 1015 29.97 844 24.92 -0.5 31 76 -4.3 24.3
23:50 1015 29.97 844 24.92 -0.5 31.1 76 -4.2 24.4
23:55 1015 29.97 844 24.92 -0.6 30.9 77 -4.2 24.5
24:00 1015 29.97 844 24.92 -0.8 30.6 77 -4.2 24.4